createdAt,value
2022-08-16T00:01:49.355Z,99.90
2022-08-16T00:06:13.105Z,99.90
2022-08-16T00:10:38.106Z,99.90
2022-08-16T00:15:06.327Z,99.90
2022-08-16T00:19:41.850Z,99.90
2022-08-16T00:24:05.111Z,99.90
2022-08-16T00:28:34.227Z,99.90
2022-08-16T00:33:00.546Z,99.90
2022-08-16T00:37:57.923Z,99.90
2022-08-16T00:42:10.088Z,99.90
2022-08-16T00:47:02.491Z,99.90
2022-08-16T00:51:29.490Z,99.90
2022-08-16T00:55:56.994Z,99.90
2022-08-16T01:00:23.747Z,99.90
2022-08-16T01:05:10.512Z,99.90
2022-08-16T01:09:33.765Z,99.90
2022-08-16T01:14:05.146Z,99.90
2022-08-16T01:18:41.615Z,99.90
2022-08-16T01:24:00.881Z,99.90
2022-08-16T01:28:30.886Z,99.90
2022-08-16T01:33:14.711Z,99.90
2022-08-16T01:37:52.976Z,99.90
2022-08-16T01:42:20.172Z,99.90
2022-08-16T01:46:47.165Z,99.90
2022-08-16T01:51:17.427Z,99.90
2022-08-16T01:55:41.745Z,99.90
2022-08-16T02:00:19.316Z,99.90
2022-08-16T02:04:48.725Z,99.90
2022-08-16T02:09:23.226Z,99.90
2022-08-16T02:13:47.405Z,99.90
2022-08-16T02:18:18.527Z,99.90
2022-08-16T02:22:41.346Z,99.90
2022-08-16T02:27:04.280Z,99.90
2022-08-16T02:32:04.093Z,99.90
2022-08-16T02:36:14.241Z,99.90
2022-08-16T02:40:57.647Z,99.90
2022-08-16T02:45:27.800Z,99.90
2022-08-16T02:50:52.128Z,99.90
2022-08-16T02:54:35.424Z,99.90
2022-08-16T02:59:00.864Z,99.90
2022-08-16T03:03:26.325Z,99.90
2022-08-16T03:07:50.961Z,99.90
2022-08-16T03:12:16.439Z,99.90
2022-08-16T03:16:58.730Z,99.90
2022-08-16T03:21:28.004Z,99.90
2022-08-16T03:26:00.425Z,99.90
2022-08-16T03:30:30.866Z,99.90
2022-08-16T03:34:57.485Z,99.90
2022-08-16T03:39:20.303Z,99.90
2022-08-16T03:43:50.982Z,99.90
2022-08-16T03:48:18.363Z,99.90
2022-08-16T03:52:43.858Z,99.90
2022-08-16T03:57:11.504Z,99.90
2022-08-16T04:01:38.498Z,99.90
2022-08-16T04:06:02.280Z,99.90
2022-08-16T04:10:36.304Z,99.90
2022-08-16T04:15:07.168Z,99.90
2022-08-16T04:19:35.946Z,99.90
2022-08-16T04:23:58.845Z,99.90
2022-08-16T04:28:52.172Z,99.90
2022-08-16T04:33:07.545Z,99.90
2022-08-16T04:37:32.846Z,99.90
2022-08-16T04:42:17.993Z,99.90
2022-08-16T04:47:03.137Z,99.90
2022-08-16T04:51:25.907Z,99.90
2022-08-16T04:55:53.367Z,99.90
2022-08-16T05:00:34.502Z,99.90
2022-08-16T05:05:17.804Z,99.90
2022-08-16T05:09:45.084Z,99.90
2022-08-16T05:14:20.211Z,99.90
2022-08-16T05:18:58.607Z,99.90
2022-08-16T05:23:23.206Z,99.30
2022-08-16T05:27:47.407Z,96.60
2022-08-16T05:32:32.453Z,92.70
2022-08-16T05:36:58.752Z,89.30
2022-08-16T05:41:32.226Z,86.80
2022-08-16T05:45:57.786Z,83.70
2022-08-16T05:50:20.468Z,79.00
2022-08-16T05:55:01.146Z,76.80
2022-08-16T05:59:28.106Z,72.00
2022-08-16T06:03:52.589Z,68.00
2022-08-16T06:08:31.764Z,65.30
2022-08-16T06:12:57.606Z,60.00
2022-08-16T06:17:22.847Z,56.60
2022-08-16T06:21:54.888Z,53.90
2022-08-16T06:26:18.608Z,52.30
2022-08-16T06:30:43.344Z,51.10
2022-08-16T06:35:07.905Z,49.70
2022-08-16T06:39:31.964Z,49.00
2022-08-16T06:44:02.046Z,49.60
2022-08-16T06:48:32.133Z,48.30
2022-08-16T06:52:58.181Z,46.20
2022-08-16T06:57:23.298Z,44.70
2022-08-16T07:01:53.731Z,44.50
2022-08-16T07:06:21.720Z,43.80
2022-08-16T07:10:52.287Z,44.10
2022-08-16T07:15:17.026Z,45.10
2022-08-16T07:20:03.474Z,44.00
2022-08-16T07:24:36.147Z,42.80
2022-08-16T07:29:08.726Z,42.20
2022-08-16T07:33:52.951Z,40.30
2022-08-16T07:38:33.893Z,39.00
2022-08-16T07:42:58.406Z,40.90
2022-08-16T07:47:24.643Z,41.00
2022-08-16T07:51:56.078Z,38.40
2022-08-16T07:56:23.407Z,37.80
2022-08-16T08:00:58.520Z,36.90
2022-08-16T08:05:25.427Z,36.10
2022-08-16T08:10:00.029Z,36.60
2022-08-16T08:14:30.011Z,35.80
2022-08-16T08:19:00.926Z,34.70
2022-08-16T08:23:25.826Z,35.10
2022-08-16T08:27:48.665Z,34.80
2022-08-16T08:32:58.422Z,36.40
2022-08-16T08:36:57.855Z,36.50
2022-08-16T08:41:32.733Z,35.30
2022-08-16T08:45:57.530Z,36.40
2022-08-16T08:50:31.604Z,35.80
2022-08-16T08:54:55.426Z,36.50
2022-08-16T08:59:20.361Z,35.50
2022-08-16T09:03:44.867Z,34.90
2022-08-16T09:08:09.086Z,35.90
2022-08-16T09:12:53.773Z,35.30
2022-08-16T09:17:48.735Z,35.10
2022-08-16T09:22:20.014Z,35.20
2022-08-16T09:26:46.574Z,35.20
2022-08-16T09:31:11.226Z,35.40
2022-08-16T09:35:37.218Z,35.00
2022-08-16T09:40:02.495Z,34.70
2022-08-16T09:45:11.228Z,35.20
2022-08-16T09:49:36.760Z,34.50
2022-08-16T09:53:59.845Z,32.30
2022-08-16T09:58:40.542Z,32.50
2022-08-16T10:03:06.084Z,33.30
2022-08-16T10:07:44.734Z,32.90
2022-08-16T10:12:26.822Z,32.30
2022-08-16T10:16:51.605Z,32.80
2022-08-16T10:21:22.690Z,31.30
2022-08-16T10:27:00.727Z,33.00
2022-08-16T10:30:32.744Z,32.80
2022-08-16T10:34:58.050Z,31.40
2022-08-16T10:39:20.806Z,32.30
2022-08-16T10:43:43.928Z,31.50
2022-08-16T10:48:27.522Z,32.10
2022-08-16T10:52:52.618Z,32.40
2022-08-16T10:57:24.585Z,36.40
2022-08-16T11:06:30.156Z,39.40
2022-08-16T11:11:06.901Z,36.60
2022-08-16T11:15:36.050Z,34.10
2022-08-16T11:20:41.391Z,32.20
2022-08-16T11:24:44.558Z,33.30
2022-08-16T11:29:15.514Z,37.90
2022-08-16T11:33:53.700Z,40.20
2022-08-16T11:38:46.600Z,41.50
2022-08-16T11:43:05.115Z,44.80
2022-08-16T11:47:27.502Z,45.90
2022-08-16T11:51:50.335Z,47.30
2022-08-16T11:56:14.873Z,48.00
2022-08-16T12:00:50.337Z,46.50
2022-08-16T12:05:16.767Z,47.10
2022-08-16T12:09:43.342Z,46.40
2022-08-16T12:14:08.359Z,47.30
2022-08-16T12:18:31.250Z,47.10
2022-08-16T12:22:54.662Z,48.60
2022-08-16T12:27:18.261Z,49.00
2022-08-16T12:32:26.636Z,49.10
2022-08-16T12:36:23.248Z,49.50
2022-08-16T12:40:53.050Z,49.20
2022-08-16T12:45:22.263Z,49.80
2022-08-16T12:49:45.169Z,50.80
2022-08-16T12:54:10.020Z,49.00
2022-08-16T12:58:48.661Z,49.30
2022-08-16T13:03:13.948Z,49.70
2022-08-16T13:07:45.170Z,50.50
2022-08-16T13:12:23.745Z,51.80
2022-08-16T13:16:47.546Z,51.80
2022-08-16T13:21:11.817Z,50.90
2022-08-16T13:25:37.197Z,51.30
2022-08-16T13:30:00.024Z,51.30
2022-08-16T13:34:22.645Z,50.20
2022-08-16T13:38:46.960Z,50.50
2022-08-16T13:43:11.788Z,50.40
2022-08-16T13:47:34.925Z,50.20
2022-08-16T13:51:57.805Z,51.00
2022-08-16T13:56:24.935Z,50.90
2022-08-16T14:00:47.319Z,51.70
2022-08-16T14:05:20.066Z,51.90
2022-08-16T14:09:45.344Z,50.90
2022-08-16T14:14:07.698Z,50.90
2022-08-16T14:18:33.517Z,50.50
2022-08-16T14:22:56.497Z,49.80
2022-08-16T14:27:24.785Z,49.60
2022-08-16T14:31:49.598Z,50.30
2022-08-16T14:36:25.193Z,49.50
2022-08-16T14:40:55.091Z,48.80
2022-08-16T14:45:22.864Z,49.10
2022-08-16T14:49:45.445Z,48.70
2022-08-16T14:54:11.427Z,48.40
2022-08-16T14:58:36.647Z,49.20
2022-08-16T15:03:04.833Z,49.10
2022-08-16T15:07:30.545Z,49.50
2022-08-16T15:11:56.984Z,49.50
2022-08-16T15:16:20.164Z,50.40
2022-08-16T15:20:44.445Z,50.80
2022-08-16T15:25:20.856Z,50.70
2022-08-16T15:29:44.189Z,50.80
2022-08-16T15:34:06.616Z,49.90
2022-08-16T15:39:02.681Z,49.40
2022-08-16T15:43:18.773Z,50.00
2022-08-16T15:47:42.924Z,50.30
2022-08-16T15:52:28.973Z,50.60
2022-08-16T15:56:55.371Z,50.70
2022-08-16T16:01:21.251Z,52.00
2022-08-16T16:05:52.586Z,52.00
2022-08-16T16:10:15.185Z,51.90
2022-08-16T16:14:37.984Z,52.30
2022-08-16T16:19:01.436Z,52.10
2022-08-16T16:23:31.422Z,53.00
2022-08-16T16:27:55.816Z,53.90
2022-08-16T16:32:34.125Z,54.60
2022-08-16T16:36:57.107Z,55.70
2022-08-16T16:41:24.863Z,56.40
2022-08-16T16:45:48.804Z,57.30
2022-08-16T16:50:13.063Z,55.20
2022-08-16T16:54:35.826Z,55.50
2022-08-16T16:59:01.532Z,56.10
2022-08-16T17:03:25.050Z,56.80
2022-08-16T17:07:48.102Z,57.20
2022-08-16T17:12:17.636Z,58.20
2022-08-16T17:16:47.344Z,59.10
2022-08-16T17:21:10.007Z,59.10
2022-08-16T17:25:36.621Z,59.10
2022-08-16T17:30:16.111Z,59.20
2022-08-16T17:34:46.435Z,59.80
2022-08-16T17:39:13.525Z,61.10
2022-08-16T17:43:44.170Z,61.70
2022-08-16T17:48:07.774Z,60.40
2022-08-16T17:52:30.165Z,63.30
2022-08-16T17:56:54.098Z,65.20
2022-08-16T18:01:18.290Z,66.40
2022-08-16T18:05:41.446Z,67.70
2022-08-16T18:10:05.224Z,67.70
2022-08-16T18:14:51.369Z,71.30
2022-08-16T18:19:11.009Z,72.80
2022-08-16T18:23:34.485Z,75.40
2022-08-16T18:27:56.955Z,74.60
2022-08-16T18:32:22.149Z,75.70
2022-08-16T18:36:49.226Z,78.70
2022-08-16T18:41:11.581Z,81.70
2022-08-16T18:45:37.075Z,83.70
2022-08-16T18:50:00.627Z,88.00
2022-08-16T18:54:24.828Z,90.90
2022-08-16T18:58:47.168Z,93.60
2022-08-16T19:03:15.657Z,96.50
2022-08-16T19:07:38.008Z,97.60
2022-08-16T19:12:05.490Z,97.90
2022-08-16T19:16:27.849Z,97.30
2022-08-16T19:20:51.465Z,98.90
2022-08-16T19:25:14.211Z,99.30
2022-08-16T19:29:37.439Z,99.90
2022-08-16T19:34:00.965Z,99.80
2022-08-16T19:38:23.539Z,99.90
2022-08-16T19:42:48.448Z,99.90
2022-08-16T19:47:11.625Z,99.90
2022-08-16T19:51:33.786Z,99.90
2022-08-16T19:55:56.406Z,99.90
2022-08-16T20:00:19.348Z,99.90
2022-08-16T20:04:42.699Z,99.90
2022-08-16T20:09:05.090Z,99.90
2022-08-16T20:13:27.559Z,99.90
2022-08-16T20:17:50.867Z,99.90
2022-08-16T20:22:52.416Z,99.90
2022-08-16T20:27:13.480Z,99.90
2022-08-16T20:31:35.979Z,99.90
2022-08-16T20:35:59.862Z,99.90
2022-08-16T20:40:34.206Z,99.90
2022-08-16T20:44:57.921Z,99.90
2022-08-16T20:49:20.271Z,99.90
2022-08-16T20:53:44.361Z,99.90
2022-08-16T20:58:06.670Z,99.90
2022-08-16T21:02:29.147Z,99.90
2022-08-16T21:06:53.856Z,99.90
2022-08-16T21:11:17.367Z,99.90
2022-08-16T21:15:39.728Z,99.90
2022-08-16T21:20:02.250Z,99.90
2022-08-16T21:24:25.207Z,99.90
2022-08-16T21:28:48.986Z,99.90
2022-08-16T21:33:15.846Z,99.90
2022-08-16T21:37:38.829Z,99.90
2022-08-16T21:42:01.415Z,99.90
2022-08-16T21:46:23.524Z,99.90
2022-08-16T21:50:46.127Z,99.90
2022-08-16T21:55:09.100Z,99.90
2022-08-16T21:59:31.514Z,99.90
2022-08-16T22:04:35.388Z,99.90
2022-08-16T22:08:45.640Z,99.90
2022-08-16T22:13:24.454Z,99.90
2022-08-16T22:17:46.697Z,99.90
2022-08-16T22:22:08.999Z,99.90
2022-08-16T22:26:40.877Z,99.90
2022-08-16T22:31:05.480Z,99.90
2022-08-16T22:35:27.707Z,99.90
2022-08-16T22:39:50.353Z,99.90
2022-08-16T22:44:13.356Z,99.90
2022-08-16T22:48:39.550Z,99.90
2022-08-16T22:53:06.424Z,99.90
2022-08-16T22:57:28.657Z,99.90
2022-08-16T23:01:51.357Z,99.90
2022-08-16T23:06:14.037Z,99.90
2022-08-16T23:10:36.896Z,99.90
2022-08-16T23:15:04.615Z,99.90
2022-08-16T23:19:27.436Z,99.90
2022-08-16T23:23:50.255Z,99.90
2022-08-16T23:28:14.690Z,99.90
2022-08-16T23:32:45.229Z,99.90
2022-08-16T23:37:07.774Z,99.90
2022-08-16T23:41:34.218Z,99.90
2022-08-16T23:46:01.059Z,99.90
2022-08-16T23:50:25.917Z,99.90
2022-08-16T23:54:48.325Z,99.90
2022-08-16T23:59:11.517Z,99.90
